createdAt,value
2023-07-16T00:02:26.997Z,5.40
2023-07-16T00:04:54.230Z,4.70
2023-07-16T00:07:21.361Z,4.90
2023-07-16T00:09:49.230Z,5.10
2023-07-16T00:12:16.483Z,5.00
2023-07-16T00:14:43.699Z,4.90
2023-07-16T00:17:13.250Z,5.20
2023-07-16T00:19:40.400Z,4.80
2023-07-16T00:22:07.611Z,4.80
2023-07-16T00:24:34.808Z,4.90
2023-07-16T00:27:02.005Z,5.00
2023-07-16T00:29:29.302Z,5.10
2023-07-16T00:31:58.307Z,5.20
2023-07-16T00:36:53.313Z,5.00
2023-07-16T00:39:20.960Z,5.10
2023-07-16T00:41:48.354Z,5.40
2023-07-16T00:44:16.071Z,5.40
2023-07-16T00:46:43.641Z,5.60
2023-07-16T00:49:14.711Z,5.60
2023-07-16T00:51:42.473Z,5.30
2023-07-16T00:54:10.423Z,5.20
2023-07-16T00:56:38.614Z,5.40
2023-07-16T05:25:42.304Z,6.60
2023-07-16T05:37:24.713Z,6.80
2023-07-16T05:39:54.345Z,6.50
2023-07-16T05:50:49.357Z,6.40
2023-07-16T06:09:21.319Z,6.20
2023-07-16T06:11:50.003Z,6.50
2023-07-16T06:14:17.462Z,6.50
2023-07-16T06:16:44.852Z,6.60
2023-07-16T06:19:18.497Z,6.00
2023-07-16T06:21:45.642Z,6.00
2023-07-16T06:24:15.878Z,6.40
2023-07-16T06:26:44.841Z,6.50
2023-07-16T06:29:12.012Z,6.30
2023-07-16T06:31:39.532Z,6.50
2023-07-16T06:34:06.723Z,6.40
2023-07-16T06:36:34.483Z,6.70
2023-07-16T06:39:01.921Z,6.50
2023-07-16T06:41:29.997Z,6.60
2023-07-16T06:43:58.942Z,6.20
2023-07-16T06:46:26.070Z,7.10
2023-07-16T06:48:53.269Z,6.60
2023-07-16T06:51:22.230Z,5.90
2023-07-16T06:53:49.523Z,6.40
2023-07-16T06:56:17.023Z,6.50
2023-07-16T06:58:44.491Z,7.20
2023-07-16T07:01:11.606Z,6.70
2023-07-16T07:03:39.061Z,6.80
2023-07-16T07:06:07.237Z,6.60
2023-07-16T07:08:34.290Z,6.80
2023-07-16T07:11:01.474Z,6.80
2023-07-16T07:13:29.340Z,6.70
2023-07-16T07:15:58.354Z,6.70
2023-07-16T07:18:25.569Z,6.70
2023-07-16T07:20:52.753Z,6.60
2023-07-16T07:23:20.018Z,6.40
2023-07-16T07:25:52.576Z,5.90
2023-07-16T07:28:20.673Z,6.20
2023-07-16T07:30:47.888Z,6.00
2023-07-16T07:33:15.093Z,5.90
2023-07-16T07:35:42.869Z,5.70
2023-07-16T07:38:11.958Z,6.00
2023-07-16T07:40:39.496Z,6.00
2023-07-16T07:43:06.651Z,5.80
2023-07-16T07:45:33.751Z,6.20
2023-07-16T07:48:02.036Z,6.60
2023-07-16T07:50:30.633Z,6.00
2023-07-16T07:52:57.736Z,6.50
2023-07-16T07:55:25.301Z,6.90
2023-07-16T07:57:52.570Z,6.80
2023-07-16T08:00:20.250Z,6.20
2023-07-16T08:02:48.384Z,6.40
2023-07-16T08:05:16.094Z,6.10
2023-07-16T08:07:43.368Z,5.70
2023-07-16T08:10:11.064Z,6.00
2023-07-16T08:12:38.435Z,6.70
2023-07-16T08:15:10.402Z,6.00
2023-07-16T08:17:38.126Z,6.10
2023-07-16T08:20:06.903Z,5.70
2023-07-16T08:22:34.111Z,6.20
2023-07-16T08:25:02.038Z,6.10
2023-07-16T08:27:29.219Z,5.80
2023-07-16T08:29:56.381Z,5.90
2023-07-16T08:32:24.006Z,5.30
2023-07-16T08:34:51.168Z,5.50
2023-07-16T08:37:18.530Z,6.10
2023-07-16T08:39:45.639Z,5.60
2023-07-16T08:42:12.707Z,5.70
2023-07-16T08:44:41.241Z,6.00
2023-07-16T08:49:36.009Z,5.70
2023-07-16T08:52:04.291Z,5.30
2023-07-16T08:54:31.434Z,5.60
2023-07-16T08:56:58.759Z,5.50
2023-07-16T08:59:26.195Z,5.30
2023-07-16T09:01:53.337Z,5.20
2023-07-16T09:04:20.424Z,5.20
2023-07-16T09:06:47.648Z,5.70
2023-07-16T09:09:22.674Z,5.10
2023-07-16T09:11:49.929Z,5.90
2023-07-16T09:14:20.163Z,5.40
2023-07-16T09:16:51.592Z,4.90
2023-07-16T09:19:21.403Z,5.80
2023-07-16T09:21:52.576Z,5.10
2023-07-16T09:24:21.855Z,5.40
2023-07-16T09:26:53.153Z,6.00
2023-07-16T09:29:20.905Z,5.50
2023-07-16T09:32:09.190Z,5.60
2023-07-16T09:34:36.412Z,5.30
2023-07-16T09:37:03.981Z,5.80
2023-07-16T09:39:31.577Z,5.60
2023-07-16T09:41:58.775Z,5.70
2023-07-16T09:44:25.903Z,5.70
2023-07-16T09:46:53.056Z,5.90
2023-07-16T09:49:20.414Z,5.90
2023-07-16T09:51:47.679Z,5.50
2023-07-16T09:54:16.542Z,6.10
2023-07-16T09:56:46.899Z,5.80
2023-07-16T09:59:19.303Z,5.60
2023-07-16T10:01:46.552Z,6.60
2023-07-16T10:04:21.011Z,6.60
2023-07-16T10:06:56.789Z,6.20
2023-07-16T10:09:43.116Z,6.70
2023-07-16T10:12:15.690Z,6.20
2023-07-16T10:14:44.506Z,6.50
2023-07-16T10:17:19.373Z,6.50
2023-07-16T10:20:00.327Z,6.50
2023-07-16T10:22:48.031Z,7.00
2023-07-16T10:25:21.467Z,7.20
2023-07-16T10:27:50.584Z,7.60
2023-07-16T10:30:17.839Z,7.60
2023-07-16T10:32:45.186Z,7.40
2023-07-16T10:35:12.667Z,7.60
2023-07-16T10:37:40.230Z,7.60
2023-07-16T10:40:11.246Z,7.90
2023-07-16T10:42:38.375Z,8.20
2023-07-16T10:45:05.946Z,8.20
2023-07-16T10:47:37.716Z,8.20
2023-07-16T10:50:06.637Z,8.70
2023-07-16T10:52:33.777Z,9.00
2023-07-16T10:55:00.926Z,9.00
2023-07-16T10:57:28.763Z,8.80
2023-07-16T10:59:59.050Z,8.90
2023-07-16T11:02:26.552Z,9.10
2023-07-16T11:04:58.947Z,9.10
2023-07-16T11:07:26.057Z,8.90
2023-07-16T11:09:55.214Z,9.30
2023-07-16T11:12:23.850Z,8.70
2023-07-16T11:14:52.256Z,9.50
2023-07-16T11:17:20.377Z,9.30
2023-07-16T11:19:48.841Z,9.60
2023-07-16T11:22:16.221Z,9.60
2023-07-16T11:24:48.114Z,10.50
2023-07-16T11:27:18.738Z,9.50
2023-07-16T11:29:50.294Z,10.30
2023-07-16T11:32:44.108Z,10.20
2023-07-16T11:35:18.439Z,10.40
2023-07-16T11:37:45.985Z,10.40
2023-07-16T11:40:17.356Z,10.70
2023-07-16T11:42:45.296Z,10.70
2023-07-16T11:45:22.439Z,10.30
2023-07-16T11:47:50.405Z,10.10
2023-07-16T11:50:17.713Z,10.50
2023-07-16T11:52:52.758Z,11.20
2023-07-16T11:55:19.909Z,11.50
2023-07-16T11:57:47.029Z,11.60
2023-07-16T12:00:14.483Z,11.60
2023-07-16T12:02:42.914Z,11.40
2023-07-16T12:05:12.317Z,11.70
2023-07-16T12:07:41.060Z,12.70
2023-07-16T12:10:08.651Z,14.00
2023-07-16T12:12:39.690Z,12.80
2023-07-16T12:15:08.663Z,12.20
2023-07-16T12:17:35.979Z,12.90
2023-07-16T12:20:05.627Z,13.50
2023-07-16T12:22:33.494Z,13.40
2023-07-16T12:25:00.851Z,12.90
2023-07-16T12:27:28.144Z,13.30
2023-07-16T12:29:56.214Z,13.30
2023-07-16T12:32:23.323Z,13.30
2023-07-16T12:34:50.633Z,13.30
2023-07-16T12:37:18.340Z,13.00
2023-07-16T12:39:45.422Z,13.40
2023-07-16T12:42:12.572Z,13.80
2023-07-16T12:44:39.803Z,13.60
2023-07-16T12:47:10.108Z,14.40
2023-07-16T12:49:37.456Z,14.70
2023-07-16T12:52:05.045Z,13.70
2023-07-16T12:54:32.516Z,13.30
2023-07-16T12:56:59.709Z,14.40
2023-07-16T12:59:26.870Z,13.60
2023-07-16T13:01:54.005Z,14.00
2023-07-16T13:04:21.120Z,13.60
2023-07-16T13:06:49.810Z,13.60
2023-07-16T13:09:17.745Z,13.30
2023-07-16T13:11:45.674Z,14.10
2023-07-16T13:14:13.251Z,13.90
2023-07-16T13:16:40.354Z,13.90
2023-07-16T13:19:07.645Z,14.20
2023-07-16T13:21:35.279Z,13.90
2023-07-16T13:24:02.484Z,14.40
2023-07-16T13:26:29.634Z,14.00
2023-07-16T13:28:56.849Z,14.00
2023-07-16T13:31:24.113Z,14.60
2023-07-16T13:33:51.231Z,14.40
2023-07-16T13:36:18.620Z,13.70
2023-07-16T13:38:49.222Z,15.10
2023-07-16T13:41:16.419Z,14.30
2023-07-16T13:43:43.606Z,14.10
2023-07-16T13:46:10.648Z,15.70
2023-07-16T13:48:55.862Z,15.10
2023-07-16T13:51:24.799Z,15.30
2023-07-16T13:53:51.942Z,14.70
2023-07-16T13:56:19.637Z,15.00
2023-07-16T13:58:47.060Z,16.10
2023-07-16T14:01:14.257Z,14.70
2023-07-16T14:03:41.571Z,15.20
2023-07-16T14:06:08.914Z,15.50
2023-07-16T14:08:37.464Z,15.90
2023-07-16T14:11:06.020Z,15.00
2023-07-16T14:13:33.110Z,14.50
2023-07-16T14:16:00.285Z,15.50
2023-07-16T14:18:27.467Z,14.70
2023-07-16T14:20:54.778Z,14.80
2023-07-16T14:23:22.004Z,15.20
2023-07-16T14:25:49.074Z,15.40
2023-07-16T14:28:16.287Z,15.50
2023-07-16T14:30:43.352Z,15.80
2023-07-16T14:33:10.462Z,15.60
2023-07-16T14:35:38.666Z,15.10
2023-07-16T14:38:06.459Z,15.20
2023-07-16T14:40:33.761Z,14.70
2023-07-16T14:43:02.152Z,15.60
2023-07-16T14:45:29.390Z,14.70
2023-07-16T14:47:56.654Z,15.50
2023-07-16T14:50:24.974Z,15.70
2023-07-16T14:52:52.200Z,16.20
2023-07-16T14:55:19.647Z,15.70
2023-07-16T14:57:46.899Z,15.30
2023-07-16T15:00:15.295Z,16.00
2023-07-16T15:02:43.729Z,16.00
2023-07-16T15:05:11.252Z,15.30
2023-07-16T15:07:38.533Z,15.60
2023-07-16T15:10:06.137Z,15.20
2023-07-16T15:12:33.610Z,16.20
2023-07-16T15:15:01.616Z,16.50
2023-07-16T15:17:29.238Z,15.90
2023-07-16T15:19:56.429Z,16.10
2023-07-16T15:22:23.630Z,16.70
2023-07-16T15:24:51.475Z,15.70
2023-07-16T15:27:18.685Z,15.10
2023-07-16T15:29:45.808Z,14.10
2023-07-16T15:32:12.928Z,14.80
2023-07-16T15:34:40.086Z,13.00
2023-07-16T15:37:07.340Z,13.60
2023-07-16T15:39:35.128Z,13.30
2023-07-16T15:42:02.439Z,13.40
2023-07-16T15:44:29.507Z,12.40
2023-07-16T15:46:57.366Z,12.20
2023-07-16T15:49:24.605Z,12.20
2023-07-16T15:51:51.740Z,12.80
2023-07-16T15:54:19.145Z,12.70
2023-07-16T15:56:47.929Z,11.80
2023-07-16T15:59:15.253Z,12.60
2023-07-16T16:01:42.497Z,12.90
2023-07-16T16:04:09.672Z,13.00
2023-07-16T16:06:38.183Z,12.40
2023-07-16T16:09:06.916Z,12.00
2023-07-16T16:11:33.961Z,13.00
2023-07-16T16:14:01.094Z,13.00
2023-07-16T16:16:28.290Z,13.30
2023-07-16T16:18:55.891Z,12.60
2023-07-16T16:21:23.059Z,12.20
2023-07-16T16:23:50.254Z,12.90
2023-07-16T16:26:17.764Z,13.10
2023-07-16T16:28:45.133Z,12.80
2023-07-16T16:31:12.376Z,12.80
2023-07-16T16:33:39.624Z,13.30
2023-07-16T16:36:13.361Z,13.20
2023-07-16T16:38:42.564Z,13.30
2023-07-16T16:41:09.654Z,12.90
2023-07-16T16:43:36.990Z,12.90
2023-07-16T16:46:04.241Z,12.70
2023-07-16T16:48:32.368Z,12.70
2023-07-16T16:51:00.457Z,13.10
2023-07-16T16:53:27.729Z,13.50
2023-07-16T16:55:54.872Z,12.00
2023-07-16T16:58:22.475Z,13.50
2023-07-16T17:00:53.632Z,12.20
2023-07-16T17:03:20.790Z,12.10
2023-07-16T17:05:51.686Z,12.70
2023-07-16T17:08:18.840Z,12.70
2023-07-16T17:10:46.056Z,10.80
2023-07-16T17:13:13.235Z,11.70
2023-07-16T17:15:47.491Z,11.30
2023-07-16T17:18:15.005Z,10.30
2023-07-16T17:20:42.270Z,10.60
2023-07-16T17:23:13.131Z,11.00
2023-07-16T17:25:40.371Z,10.40
2023-07-16T17:28:07.423Z,10.60
2023-07-16T17:30:34.732Z,11.20
2023-07-16T17:33:01.942Z,11.80
2023-07-16T17:35:31.335Z,11.50
2023-07-16T17:37:58.441Z,11.90
2023-07-16T17:40:25.609Z,11.60
2023-07-16T17:42:54.892Z,11.60
2023-07-16T17:45:22.455Z,12.10
2023-07-16T17:47:49.663Z,12.90
2023-07-16T17:50:16.999Z,13.40
2023-07-16T17:52:44.179Z,13.40
2023-07-16T17:55:12.293Z,12.20
2023-07-16T17:57:39.690Z,12.60
2023-07-16T18:00:23.950Z,12.70
2023-07-16T18:02:54.655Z,12.40
2023-07-16T18:05:22.013Z,12.50
2023-07-16T18:07:51.995Z,12.30
2023-07-16T18:10:20.886Z,12.00
2023-07-16T18:12:49.805Z,12.50
2023-07-16T18:15:17.817Z,12.30
2023-07-16T18:17:48.049Z,12.10
2023-07-16T18:20:15.810Z,11.90
2023-07-16T18:22:43.676Z,11.80
2023-07-16T18:25:11.123Z,11.30
2023-07-16T18:27:39.959Z,13.70
2023-07-16T18:30:08.089Z,12.20
2023-07-16T18:32:35.313Z,12.50
2023-07-16T18:35:02.406Z,11.30
2023-07-16T18:37:29.523Z,11.60
2023-07-16T18:39:57.269Z,12.10
2023-07-16T18:42:26.372Z,13.00
2023-07-16T18:44:58.130Z,12.00
2023-07-16T18:47:25.472Z,11.60
2023-07-16T18:49:53.175Z,11.80
2023-07-16T18:52:21.331Z,12.40
2023-07-16T18:54:48.458Z,11.80
2023-07-16T18:57:17.320Z,11.70
2023-07-16T18:59:44.924Z,12.40
2023-07-16T19:02:12.073Z,12.80
2023-07-16T19:04:39.309Z,13.10
2023-07-16T19:07:06.930Z,13.70
2023-07-16T19:09:34.172Z,13.80
2023-07-16T19:12:01.508Z,13.30
2023-07-16T19:14:28.636Z,11.60
2023-07-16T19:16:55.817Z,10.90
2023-07-16T19:19:22.969Z,11.00
2023-07-16T19:21:50.013Z,11.20
2023-07-16T19:24:17.104Z,11.20
2023-07-16T19:26:44.284Z,11.70
2023-07-16T19:29:11.413Z,11.60
2023-07-16T19:31:38.997Z,11.10
2023-07-16T19:34:06.226Z,10.50
2023-07-16T19:36:33.385Z,10.50
2023-07-16T19:39:00.475Z,10.80
2023-07-16T19:41:27.912Z,11.20
2023-07-16T19:43:55.018Z,10.90
2023-07-16T19:46:22.107Z,10.60
2023-07-16T19:48:49.381Z,10.80
2023-07-16T19:51:16.975Z,10.60
2023-07-16T19:53:44.348Z,9.80
2023-07-16T19:56:12.140Z,9.80
2023-07-16T19:58:39.976Z,10.40
2023-07-16T20:01:08.223Z,8.90
2023-07-16T20:03:35.696Z,9.00
2023-07-16T20:06:07.312Z,8.90
2023-07-16T20:08:34.302Z,9.20
2023-07-16T20:11:01.381Z,8.00
2023-07-16T20:13:28.706Z,9.10
2023-07-16T20:15:56.867Z,8.80
2023-07-16T20:18:24.187Z,9.30
2023-07-16T20:20:53.690Z,8.30
2023-07-16T20:23:21.180Z,8.40
2023-07-16T20:25:48.329Z,8.30
2023-07-16T20:28:20.455Z,8.90
2023-07-16T20:30:48.388Z,7.80
2023-07-16T20:33:15.510Z,8.00
2023-07-16T20:35:43.576Z,8.60
2023-07-16T20:38:11.100Z,8.10
2023-07-16T20:40:38.170Z,8.50
2023-07-16T20:43:05.226Z,8.20
2023-07-16T20:45:32.375Z,8.30
2023-07-16T20:48:00.867Z,8.40
2023-07-16T20:52:57.591Z,7.90
2023-07-16T20:57:52.780Z,8.00
2023-07-16T21:00:22.337Z,8.30
2023-07-16T21:02:52.924Z,8.10
2023-07-16T21:05:20.176Z,8.00
2023-07-16T21:07:49.644Z,8.00
2023-07-16T21:10:16.854Z,8.20
2023-07-16T21:12:44.984Z,7.60
2023-07-16T21:15:13.461Z,7.90
2023-07-16T21:17:40.742Z,8.00
2023-07-16T21:20:10.906Z,8.00
2023-07-16T21:22:39.509Z,8.10
2023-07-16T21:27:40.879Z,7.90
2023-07-16T21:30:08.819Z,7.70
2023-07-16T21:32:35.946Z,7.40
2023-07-16T21:35:03.075Z,7.60
2023-07-16T21:37:30.220Z,8.10
2023-07-16T21:39:57.220Z,7.40
2023-07-16T21:42:26.319Z,7.90
2023-07-16T21:44:53.542Z,7.60
2023-07-16T21:47:20.621Z,7.90
2023-07-16T21:49:47.897Z,7.60
2023-07-16T21:52:15.235Z,7.20
2023-07-16T21:54:43.274Z,7.70
2023-07-16T21:57:12.683Z,8.00
2023-07-16T21:59:39.749Z,7.90
2023-07-16T22:02:06.828Z,7.20
2023-07-16T22:04:33.917Z,7.40
2023-07-16T22:07:01.676Z,7.20
2023-07-16T22:09:28.960Z,7.80
2023-07-16T22:11:56.535Z,7.80
2023-07-16T22:14:23.696Z,7.00
2023-07-16T22:16:50.803Z,7.20
2023-07-16T22:19:31.629Z,7.40
2023-07-16T22:22:01.426Z,6.80
2023-07-16T22:24:29.394Z,7.10
2023-07-16T22:26:57.499Z,6.80
2023-07-16T22:29:26.330Z,8.10
2023-07-16T22:31:53.436Z,7.90
2023-07-16T22:34:21.704Z,7.80
2023-07-16T22:36:48.996Z,7.90
2023-07-16T22:39:16.089Z,7.40
2023-07-16T22:41:43.188Z,7.10
2023-07-16T22:44:10.209Z,7.40
2023-07-16T22:46:38.385Z,7.40
2023-07-16T22:49:08.139Z,7.50
2023-07-16T22:51:35.452Z,7.30
2023-07-16T22:54:04.119Z,7.50
2023-07-16T22:56:31.316Z,6.90
2023-07-16T22:58:58.419Z,7.50
2023-07-16T23:01:26.101Z,7.10
2023-07-16T23:03:53.227Z,7.30
2023-07-16T23:06:20.356Z,7.00
2023-07-16T23:08:47.493Z,6.90
2023-07-16T23:11:14.874Z,7.60
2023-07-16T23:13:42.071Z,7.00
2023-07-16T23:16:17.167Z,7.40
2023-07-16T23:18:44.320Z,7.20
2023-07-16T23:21:12.313Z,7.00
2023-07-16T23:23:39.373Z,7.00
2023-07-16T23:26:06.450Z,6.90
2023-07-16T23:28:33.715Z,6.90
2023-07-16T23:31:00.961Z,6.80
2023-07-16T23:33:29.220Z,6.90
2023-07-16T23:35:57.314Z,6.40
2023-07-16T23:38:24.432Z,6.30
2023-07-16T23:40:51.502Z,6.50
2023-07-16T23:43:18.559Z,6.40
2023-07-16T23:45:45.614Z,6.20
2023-07-16T23:48:12.666Z,6.20
2023-07-16T23:50:41.670Z,6.10
2023-07-16T23:53:08.765Z,6.20
2023-07-16T23:55:35.870Z,6.50
2023-07-16T23:58:03.143Z,6.60
